Terminal Aerodrome Forecast
Issued by NWS Wichita, KS

Home | Current Version | Previous Version | Graphics & Text | Print | Product List | Glossary On
Versions: 1 2 3 4 5 6 7 8 9 10 11 12 13 14 15 16 17 18 19 20
000
FTUS43 KICT 262248 AAB
TAFICT
TAF AMD
KICT 262248Z 2623/2718 02015KT 6SM BR OVC008
      TEMPO 2700/2701 4SM BR SCT004 OVC008
     FM270100 33012KT P6SM VCSH BKN015 OVC040
     FM270400 32015G20KT P6SM SCT020 BKN035
     FM270700 32015G20KT P6SM SCT020 BKN150=

USA.gov is the U.S. government's official web portal to all federal, state and local government web resources and services.